Uddel, Netherlands
Current Conditions -  °F | °C
As of 3:25 PM on Monday 26 Jan 2015 (Local Time) from EHDL Reporting Station
Overcast Overcast  
Wind Chill: 39°   Ceiling: 2300
Heat Index: 45°   Visibility: 6mi
Dew Point: 43°   Wind: 10mph
Humidity: 93%   Direction: 310°NW
Pressure: 30"   Gusts: NA
Location:  52.26°N, 5.78°E
Report Text: EHDL 261425Z AUTO 31009KT 9999 FEW007 SCT019 OVC023 07/06 Q1016 REDZ WHT
Loading
Personal Weather Stations






























Interactive Weather Map New forecast layout! Learn more

10-Day Weather Forecast

Advertisements
Track Severe Weather on mobile